sensor_id;sensor_type;location;lat;lon;timestamp;pressure;altitude;pressure_sealevel;temperature;humidity
47636;BME280;33364;50.766;15.338;2022-09-09T00:02:27;94663.44;;;13.75;83.35
47636;BME280;33364;50.766;15.338;2022-09-09T00:05:23;94662.63;;;13.74;82.95
47636;BME280;33364;50.766;15.338;2022-09-09T00:07:49;94665.28;;;13.65;82.99
47636;BME280;33364;50.766;15.338;2022-09-09T00:15:37;94655.72;;;13.47;83.50
47636;BME280;33364;50.766;15.338;2022-09-09T00:18:17;94656.00;;;13.44;83.35
47636;BME280;33364;50.766;15.338;2022-09-09T00:21:15;94656.66;;;13.29;82.91
47636;BME280;33364;50.766;15.338;2022-09-09T00:23:48;94653.13;;;13.20;83.48
47636;BME280;33364;50.766;15.338;2022-09-09T00:26:39;94652.81;;;13.05;85.17
47636;BME280;33364;50.766;15.338;2022-09-09T00:31:37;94650.06;;;12.79;85.44
47636;BME280;33364;50.766;15.338;2022-09-09T00:34:15;94644.28;;;12.58;85.65
47636;BME280;33364;50.766;15.338;2022-09-09T00:36:44;94643.63;;;12.56;86.82
47636;BME280;33364;50.766;15.338;2022-09-09T00:39:19;94649.59;;;12.66;86.31
47636;BME280;33364;50.766;15.338;2022-09-09T00:42:05;94647.53;;;12.60;84.27
47636;BME280;33364;50.766;15.338;2022-09-09T00:44:38;94651.69;;;12.53;85.72
47636;BME280;33364;50.766;15.338;2022-09-09T00:52:55;94652.53;;;12.43;85.17
47636;BME280;33364;50.766;15.338;2022-09-09T00:55:45;94655.84;;;12.26;85.93
47636;BME280;33364;50.766;15.338;2022-09-09T00:58:13;94653.56;;;12.13;86.63
47636;BME280;33364;50.766;15.338;2022-09-09T01:01:10;94657.25;;;12.11;86.97
47636;BME280;33364;50.766;15.338;2022-09-09T01:03:46;94659.69;;;12.22;88.11
47636;BME280;33364;50.766;15.338;2022-09-09T01:06:35;94663.19;;;12.40;87.60
47636;BME280;33364;50.766;15.338;2022-09-09T01:09:27;94659.38;;;12.35;85.82
47636;BME280;33364;50.766;15.338;2022-09-09T01:12:02;94660.31;;;12.43;86.46
47636;BME280;33364;50.766;15.338;2022-09-09T01:17:05;94659.66;;;12.41;86.05
47636;BME280;33364;50.766;15.338;2022-09-09T01:27:35;94678.09;;;12.29;86.27
47636;BME280;33364;50.766;15.338;2022-09-09T01:30:09;94671.53;;;12.25;86.36
47636;BME280;33364;50.766;15.338;2022-09-09T01:32:39;94673.47;;;12.32;86.37
47636;BME280;33364;50.766;15.338;2022-09-09T01:35:10;94678.66;;;12.32;85.44
47636;BME280;33364;50.766;15.338;2022-09-09T01:37:38;94672.00;;;12.20;85.56
47636;BME280;33364;50.766;15.338;2022-09-09T01:40:04;94669.00;;;12.05;85.86
47636;BME280;33364;50.766;15.338;2022-09-09T01:42:29;94672.44;;;12.06;86.78
47636;BME280;33364;50.766;15.338;2022-09-09T01:44:55;94670.50;;;11.98;87.01
47636;BME280;33364;50.766;15.338;2022-09-09T01:47:20;94670.66;;;12.06;87.20
47636;BME280;33364;50.766;15.338;2022-09-09T01:49:46;94667.91;;;12.08;86.61
47636;BME280;33364;50.766;15.338;2022-09-09T01:52:11;94667.91;;;11.98;86.50
47636;BME280;33364;50.766;15.338;2022-09-09T01:54:37;94676.25;;;11.92;86.44
47636;BME280;33364;50.766;15.338;2022-09-09T01:57:33;94681.59;;;12.00;87.45
47636;BME280;33364;50.766;15.338;2022-09-09T02:00:10;94676.09;;;12.13;85.89
47636;BME280;33364;50.766;15.338;2022-09-09T02:05:37;94686.44;;;12.23;84.80
47636;BME280;33364;50.766;15.338;2022-09-09T02:08:06;94682.78;;;12.15;84.03
47636;BME280;33364;50.766;15.338;2022-09-09T02:11:20;94684.44;;;11.87;85.01
47636;BME280;33364;50.766;15.338;2022-09-09T02:13:29;94686.59;;;11.73;86.14
47636;BME280;33364;50.766;15.338;2022-09-09T02:16:06;94685.78;;;11.72;86.23
47636;BME280;33364;50.766;15.338;2022-09-09T02:18:39;94678.84;;;11.82;85.76
47636;BME280;33364;50.766;15.338;2022-09-09T02:21:07;94686.03;;;11.79;86.55
47636;BME280;33364;50.766;15.338;2022-09-09T02:23:34;94683.38;;;11.90;86.41
47636;BME280;33364;50.766;15.338;2022-09-09T02:26:01;94683.38;;;11.90;85.04
47636;BME280;33364;50.766;15.338;2022-09-09T02:28:30;94681.03;;;11.97;84.89
47636;BME280;33364;50.766;15.338;2022-09-09T02:30:58;94681.44;;;12.02;83.75
47636;BME280;33364;50.766;15.338;2022-09-09T02:33:30;94684.59;;;11.96;83.68
47636;BME280;33364;50.766;15.338;2022-09-09T02:36:01;94687.19;;;11.96;83.13
47636;BME280;33364;50.766;15.338;2022-09-09T02:38:33;94683.78;;;11.85;83.61
47636;BME280;33364;50.766;15.338;2022-09-09T02:41:00;94684.97;;;11.72;83.96
47636;BME280;33364;50.766;15.338;2022-09-09T02:43:34;94690.00;;;11.73;84.52
47636;BME280;33364;50.766;15.338;2022-09-09T02:46:24;94681.56;;;11.71;84.37
47636;BME280;33364;50.766;15.338;2022-09-09T02:49:09;94686.34;;;11.66;84.44
47636;BME280;33364;50.766;15.338;2022-09-09T02:51:45;94682.22;;;11.63;83.80
47636;BME280;33364;50.766;15.338;2022-09-09T02:54:30;94690.28;;;11.41;84.58
47636;BME280;33364;50.766;15.338;2022-09-09T02:57:01;94693.81;;;11.40;84.77
47636;BME280;33364;50.766;15.338;2022-09-09T02:59:29;94685.31;;;11.28;85.83
47636;BME280;33364;50.766;15.338;2022-09-09T03:01:55;94690.66;;;11.27;86.03
47636;BME280;33364;50.766;15.338;2022-09-09T03:04:21;94696.81;;;11.35;86.43
47636;BME280;33364;50.766;15.338;2022-09-09T03:06:47;94695.72;;;11.48;86.46
47636;BME280;33364;50.766;15.338;2022-09-09T03:09:12;94696.69;;;11.47;84.97
47636;BME280;33364;50.766;15.338;2022-09-09T03:11:38;94698.97;;;11.30;84.97
47636;BME280;33364;50.766;15.338;2022-09-09T03:14:04;94697.97;;;11.12;85.48
47636;BME280;33364;50.766;15.338;2022-09-09T03:16:29;94703.72;;;11.15;87.55
47636;BME280;33364;50.766;15.338;2022-09-09T03:18:55;94697.72;;;11.15;86.18
47636;BME280;33364;50.766;15.338;2022-09-09T03:21:21;94698.16;;;11.30;86.33
47636;BME280;33364;50.766;15.338;2022-09-09T03:23:46;94699.69;;;11.42;86.06
47636;BME280;33364;50.766;15.338;2022-09-09T03:26:12;94703.34;;;11.39;85.38
47636;BME280;33364;50.766;15.338;2022-09-09T03:28:41;94705.00;;;11.40;83.93
47636;BME280;33364;50.766;15.338;2022-09-09T03:31:06;94704.19;;;11.40;83.62
47636;BME280;33364;50.766;15.338;2022-09-09T03:33:36;94706.34;;;11.35;84.64
47636;BME280;33364;50.766;15.338;2022-09-09T03:36:02;94704.44;;;11.37;85.30
47636;BME280;33364;50.766;15.338;2022-09-09T03:38:28;94698.16;;;11.49;85.15
47636;BME280;33364;50.766;15.338;2022-09-09T03:40:55;94703.25;;;11.60;84.39
47636;BME280;33364;50.766;15.338;2022-09-09T03:43:26;94702.72;;;11.66;84.37
47636;BME280;33364;50.766;15.338;2022-09-09T03:45:52;94705.97;;;11.68;82.86
47636;BME280;33364;50.766;15.338;2022-09-09T03:48:19;94708.84;;;11.65;83.82
47636;BME280;33364;50.766;15.338;2022-09-09T03:50:49;94703.94;;;11.62;83.19
47636;BME280;33364;50.766;15.338;2022-09-09T03:53:16;94709.66;;;11.66;83.82
47636;BME280;33364;50.766;15.338;2022-09-09T03:55:46;94707.75;;;11.68;83.74
47636;BME280;33364;50.766;15.338;2022-09-09T03:58:14;94704.19;;;11.69;83.33
47636;BME280;33364;50.766;15.338;2022-09-09T04:00:40;94708.03;;;11.65;82.03
47636;BME280;33364;50.766;15.338;2022-09-09T04:03:11;94709.78;;;11.64;83.70
47636;BME280;33364;50.766;15.338;2022-09-09T04:05:39;94710.88;;;11.52;82.75
47636;BME280;33364;50.766;15.338;2022-09-09T04:08:06;94709.09;;;11.53;83.72
47636;BME280;33364;50.766;15.338;2022-09-09T04:10:31;94712.38;;;11.45;83.48
47636;BME280;33364;50.766;15.338;2022-09-09T04:12:57;94711.78;;;11.22;85.12
47636;BME280;33364;50.766;15.338;2022-09-09T04:15:23;94716.09;;;11.12;85.62
47636;BME280;33364;50.766;15.338;2022-09-09T04:17:48;94716.31;;;10.99;86.85
47636;BME280;33364;50.766;15.338;2022-09-09T04:20:14;94715.91;;;10.94;86.08
47636;BME280;33364;50.766;15.338;2022-09-09T04:22:40;94717.13;;;10.90;86.78
47636;BME280;33364;50.766;15.338;2022-09-09T04:25:06;94725.72;;;10.91;86.87
47636;BME280;33364;50.766;15.338;2022-09-09T04:27:32;94716.31;;;10.89;87.23
47636;BME280;33364;50.766;15.338;2022-09-09T04:29:57;94716.31;;;10.89;86.35
47636;BME280;33364;50.766;15.338;2022-09-09T04:32:24;94718.72;;;10.81;87.60
47636;BME280;33364;50.766;15.338;2022-09-09T04:34:52;94715.97;;;10.73;87.78
47636;BME280;33364;50.766;15.338;2022-09-09T04:37:18;94718.81;;;10.70;87.83
47636;BME280;33364;50.766;15.338;2022-09-09T04:39:43;94716.91;;;10.72;88.12
47636;BME280;33364;50.766;15.338;2022-09-09T04:42:09;94715.84;;;10.75;88.31
47636;BME280;33364;50.766;15.338;2022-09-09T04:44:34;94714.19;;;10.74;87.74
47636;BME280;33364;50.766;15.338;2022-09-09T04:47:00;94718.25;;;10.67;88.01
47636;BME280;33364;50.766;15.338;2022-09-09T04:49:25;94716.63;;;10.66;89.00
47636;BME280;33364;50.766;15.338;2022-09-09T04:51:51;94710.09;;;10.71;88.96
47636;BME280;33364;50.766;15.338;2022-09-09T04:54:17;94726.34;;;10.83;88.62
47636;BME280;33364;50.766;15.338;2022-09-09T04:56:43;94718.22;;;10.87;87.91
47636;BME280;33364;50.766;15.338;2022-09-09T04:59:08;94723.25;;;10.89;88.23
47636;BME280;33364;50.766;15.338;2022-09-09T05:01:35;94722.56;;;10.87;88.13
47636;BME280;33364;50.766;15.338;2022-09-09T05:04:02;94717.00;;;10.92;87.92
47636;BME280;33364;50.766;15.338;2022-09-09T05:06:28;94715.25;;;11.02;88.78
47636;BME280;33364;50.766;15.338;2022-09-09T05:08:56;94719.38;;;11.14;88.42
47636;BME280;33364;50.766;15.338;2022-09-09T05:11:25;94723.22;;;11.20;87.40
47636;BME280;33364;50.766;15.338;2022-09-09T05:13:52;94727.31;;;11.22;87.96
47636;BME280;33364;50.766;15.338;2022-09-09T05:16:18;94736.06;;;11.31;87.64
47636;BME280;33364;50.766;15.338;2022-09-09T05:18:45;94727.50;;;11.40;87.33
47636;BME280;33364;50.766;15.338;2022-09-09T05:21:13;94724.38;;;11.46;87.10
47636;BME280;33364;50.766;15.338;2022-09-09T05:23:39;94729.41;;;11.48;87.12
47636;BME280;33364;50.766;15.338;2022-09-09T05:26:06;94724.94;;;11.50;87.23
47636;BME280;33364;50.766;15.338;2022-09-09T05:28:34;94730.78;;;11.52;87.56
47636;BME280;33364;50.766;15.338;2022-09-09T05:31:03;94729.97;;;11.51;87.92
47636;BME280;33364;50.766;15.338;2022-09-09T05:33:35;94718.41;;;11.55;87.60
47636;BME280;33364;50.766;15.338;2022-09-09T05:36:03;94722.88;;;11.53;88.48
47636;BME280;33364;50.766;15.338;2022-09-09T05:38:30;94719.22;;;11.56;88.92
47636;BME280;33364;50.766;15.338;2022-09-09T05:40:56;94713.88;;;11.57;88.99
47636;BME280;33364;50.766;15.338;2022-09-09T05:43:23;94723.28;;;11.58;89.07
47636;BME280;33364;50.766;15.338;2022-09-09T05:46:08;94717.69;;;11.63;89.42
47636;BME280;33364;50.766;15.338;2022-09-09T05:48:36;94713.88;;;11.67;89.43
47636;BME280;33364;50.766;15.338;2022-09-09T05:51:05;94710.19;;;11.70;89.67
47636;BME280;33364;50.766;15.338;2022-09-09T05:53:34;94714.97;;;11.74;89.81
47636;BME280;33364;50.766;15.338;2022-09-09T05:56:05;94709.38;;;11.79;89.54
47636;BME280;33364;50.766;15.338;2022-09-09T05:58:32;94720.09;;;11.95;89.48
47636;BME280;33364;50.766;15.338;2022-09-09T06:01:07;94714.88;;;12.05;89.62
47636;BME280;33364;50.766;15.338;2022-09-09T06:03:34;94715.41;;;12.18;88.82
47636;BME280;33364;50.766;15.338;2022-09-09T06:06:02;94710.19;;;12.28;88.97
47636;BME280;33364;50.766;15.338;2022-09-09T06:08:30;94713.75;;;12.36;88.83
47636;BME280;33364;50.766;15.338;2022-09-09T06:11:01;94724.63;;;12.50;88.59
47636;BME280;33364;50.766;15.338;2022-09-09T06:13:29;94718.50;;;12.51;88.59
47636;BME280;33364;50.766;15.338;2022-09-09T06:15:54;94712.44;;;12.60;88.75
47636;BME280;33364;50.766;15.338;2022-09-09T06:18:20;94712.41;;;12.69;88.44
47636;BME280;33364;50.766;15.338;2022-09-09T06:20:55;94716.75;;;12.79;88.68
47636;BME280;33364;50.766;15.338;2022-09-09T06:23:21;94707.97;;;12.89;88.73
47636;BME280;33364;50.766;15.338;2022-09-09T06:25:47;94717.91;;;13.04;88.56
47636;BME280;33364;50.766;15.338;2022-09-09T06:28:12;94713.78;;;13.11;88.37
47636;BME280;33364;50.766;15.338;2022-09-09T06:30:39;94711.69;;;13.14;88.68
47636;BME280;33364;50.766;15.338;2022-09-09T06:33:05;94721.66;;;13.19;88.10
47636;BME280;33364;50.766;15.338;2022-09-09T06:35:30;94724.53;;;13.26;87.31
47636;BME280;33364;50.766;15.338;2022-09-09T06:37:56;94724.47;;;13.35;87.19
47636;BME280;33364;50.766;15.338;2022-09-09T06:40:24;94728.66;;;13.46;87.00
47636;BME280;33364;50.766;15.338;2022-09-09T06:42:49;94730.50;;;13.54;86.33
47636;BME280;33364;50.766;15.338;2022-09-09T06:45:15;94728.00;;;13.62;85.79
47636;BME280;33364;50.766;15.338;2022-09-09T06:47:42;94729.22;;;13.67;86.05
47636;BME280;33364;50.766;15.338;2022-09-09T06:50:07;94735.59;;;13.73;85.33
47636;BME280;33364;50.766;15.338;2022-09-09T06:52:33;94734.88;;;13.81;85.41
47636;BME280;33364;50.766;15.338;2022-09-09T06:54:59;94730.84;;;13.86;84.72
47636;BME280;33364;50.766;15.338;2022-09-09T06:57:24;94734.88;;;13.81;84.79
47636;BME280;33364;50.766;15.338;2022-09-09T06:59:50;94731.44;;;13.80;85.77
47636;BME280;33364;50.766;15.338;2022-09-09T07:02:15;94741.31;;;13.77;85.09
47636;BME280;33364;50.766;15.338;2022-09-09T07:04:41;94740.34;;;13.78;84.82
47636;BME280;33364;50.766;15.338;2022-09-09T07:07:07;94739.59;;;13.85;84.72
47636;BME280;33364;50.766;15.338;2022-09-09T07:09:35;94744.69;;;13.87;84.22
47636;BME280;33364;50.766;15.338;2022-09-09T07:12:00;94737.00;;;14.03;85.12
47636;BME280;33364;50.766;15.338;2022-09-09T07:14:26;94737.38;;;14.26;85.41
47636;BME280;33364;50.766;15.338;2022-09-09T07:16:52;94740.09;;;14.42;83.64
47636;BME280;33364;50.766;15.338;2022-09-09T07:19:17;94743.50;;;14.61;83.74
47636;BME280;33364;50.766;15.338;2022-09-09T07:21:43;94743.31;;;14.80;82.95
47636;BME280;33364;50.766;15.338;2022-09-09T07:24:10;94739.78;;;14.89;83.22
47636;BME280;33364;50.766;15.338;2022-09-09T07:26:37;94744.59;;;15.02;81.59
47636;BME280;33364;50.766;15.338;2022-09-09T07:29:03;94745.13;;;15.14;81.40
47636;BME280;33364;50.766;15.338;2022-09-09T07:31:32;94749.97;;;15.43;80.95
47636;BME280;33364;50.766;15.338;2022-09-09T07:33:59;94748.47;;;15.74;79.50
47636;BME280;33364;50.766;15.338;2022-09-09T07:36:30;94755.03;;;16.11;78.32
47636;BME280;33364;50.766;15.338;2022-09-09T07:39:04;94756.06;;;16.43;77.41
47636;BME280;33364;50.766;15.338;2022-09-09T07:41:35;94753.41;;;16.51;76.27
47636;BME280;33364;50.766;15.338;2022-09-09T07:44:09;94750.81;;;16.75;76.24
47636;BME280;33364;50.766;15.338;2022-09-09T07:46:37;94757.00;;;16.99;76.83
47636;BME280;33364;50.766;15.338;2022-09-09T07:49:05;94761.97;;;17.25;73.88
47636;BME280;33364;50.766;15.338;2022-09-09T07:51:33;94754.56;;;17.45;73.80
47636;BME280;33364;50.766;15.338;2022-09-09T07:54:01;94753.94;;;17.34;73.43
47636;BME280;33364;50.766;15.338;2022-09-09T07:56:29;94754.94;;;17.33;73.39
47636;BME280;33364;50.766;15.338;2022-09-09T07:58:56;94755.06;;;17.40;73.03
47636;BME280;33364;50.766;15.338;2022-09-09T08:01:25;94758.81;;;17.46;74.68
47636;BME280;33364;50.766;15.338;2022-09-09T08:04:02;94757.56;;;17.65;72.74
47636;BME280;33364;50.766;15.338;2022-09-09T08:06:31;94760.22;;;17.96;72.81
47636;BME280;33364;50.766;15.338;2022-09-09T08:08:57;94757.66;;;18.10;71.49
47636;BME280;33364;50.766;15.338;2022-09-09T08:11:25;94757.41;;;18.28;72.93
47636;BME280;33364;50.766;15.338;2022-09-09T08:13:52;94755.38;;;18.76;71.79
47636;BME280;33364;50.766;15.338;2022-09-09T08:16:24;94771.63;;;19.09;68.62
47636;BME280;33364;50.766;15.338;2022-09-09T08:18:51;94776.44;;;19.35;68.49
47636;BME280;33364;50.766;15.338;2022-09-09T08:21:20;94782.88;;;19.33;68.68
47636;BME280;33364;50.766;15.338;2022-09-09T08:23:47;94773.19;;;19.63;67.44
47636;BME280;33364;50.766;15.338;2022-09-09T08:26:15;94776.72;;;19.70;66.88
47636;BME280;33364;50.766;15.338;2022-09-09T08:28:42;94774.69;;;19.57;66.12
47636;BME280;33364;50.766;15.338;2022-09-09T08:31:16;94769.56;;;19.20;66.86
47636;BME280;33364;50.766;15.338;2022-09-09T08:33:43;94778.94;;;18.99;68.23
47636;BME280;33364;50.766;15.338;2022-09-09T08:36:16;94781.06;;;18.81;68.25
47636;BME280;33364;50.766;15.338;2022-09-09T08:38:42;94776.31;;;18.99;68.19
47636;BME280;33364;50.766;15.338;2022-09-09T08:43:46;94783.06;;;19.61;66.78
47636;BME280;33364;50.766;15.338;2022-09-09T08:48:56;94796.34;;;19.89;62.42
47636;BME280;33364;50.766;15.338;2022-09-09T08:51:27;94783.56;;;19.86;64.22
47636;BME280;33364;50.766;15.338;2022-09-09T08:53:58;94778.31;;;19.41;64.51
47636;BME280;33364;50.766;15.338;2022-09-09T08:56:27;94777.78;;;19.31;65.45
47636;BME280;33364;50.766;15.338;2022-09-09T08:58:54;94770.44;;;19.41;68.75
47636;BME280;33364;50.766;15.338;2022-09-09T09:07:07;94771.66;;;19.69;66.28
47636;BME280;33364;50.766;15.338;2022-09-09T09:10:02;94773.56;;;19.96;65.81
47636;BME280;33364;50.766;15.338;2022-09-09T09:12:35;94773.06;;;20.43;65.34
47636;BME280;33364;50.766;15.338;2022-09-09T09:15:14;94778.03;;;21.03;64.74
47636;BME280;33364;50.766;15.338;2022-09-09T09:17:42;94773.00;;;21.08;62.42
47636;BME280;33364;50.766;15.338;2022-09-09T09:20:14;94769.41;;;21.15;61.88
47636;BME280;33364;50.766;15.338;2022-09-09T09:22:50;94775.53;;;21.51;60.47
47636;BME280;33364;50.766;15.338;2022-09-09T09:25:38;94771.09;;;21.58;58.43
47636;BME280;33364;50.766;15.338;2022-09-09T09:28:17;94771.88;;;21.52;59.64
47636;BME280;33364;50.766;15.338;2022-09-09T09:35:51;94773.41;;;21.74;58.03
47636;BME280;33364;50.766;15.338;2022-09-09T09:38:24;94782.63;;;21.98;60.49
47636;BME280;33364;50.766;15.338;2022-09-09T09:40:53;94782.00;;;21.96;55.58
47636;BME280;33364;50.766;15.338;2022-09-09T09:43:28;94782.03;;;22.03;57.83
47636;BME280;33364;50.766;15.338;2022-09-09T09:45:54;94773.81;;;22.32;55.35
47636;BME280;33364;50.766;15.338;2022-09-09T09:48:20;94771.84;;;22.54;54.47
47636;BME280;33364;50.766;15.338;2022-09-09T09:53:29;94780.44;;;22.89;54.08
47636;BME280;33364;50.766;15.338;2022-09-09T09:56:01;94767.00;;;23.04;55.27
47636;BME280;33364;50.766;15.338;2022-09-09T09:58:30;94761.72;;;23.11;54.02
47636;BME280;33364;50.766;15.338;2022-09-09T10:00:57;94757.66;;;23.08;54.26
47636;BME280;33364;50.766;15.338;2022-09-09T10:03:31;94765.16;;;23.31;52.87
47636;BME280;33364;50.766;15.338;2022-09-09T10:05:57;94761.47;;;23.39;52.75
47636;BME280;33364;50.766;15.338;2022-09-09T10:08:25;94762.22;;;23.59;51.51
47636;BME280;33364;50.766;15.338;2022-09-09T10:13:46;94756.34;;;23.70;51.09
47636;BME280;33364;50.766;15.338;2022-09-09T10:19:09;94752.41;;;24.24;50.06
47636;BME280;33364;50.766;15.338;2022-09-09T10:25:20;94752.03;;;23.76;49.74
47636;BME280;33364;50.766;15.338;2022-09-09T10:28:25;94756.00;;;23.98;50.83
47636;BME280;33364;50.766;15.338;2022-09-09T10:34:05;94759.97;;;23.76;49.13
47636;BME280;33364;50.766;15.338;2022-09-09T10:36:40;94753.88;;;23.62;50.33
47636;BME280;33364;50.766;15.338;2022-09-09T10:39:37;94753.44;;;23.78;50.88
47636;BME280;33364;50.766;15.338;2022-09-09T10:42:09;94755.97;;;23.47;51.65
47636;BME280;33364;50.766;15.338;2022-09-09T10:50:26;94745.81;;;23.50;51.01
47636;BME280;33364;50.766;15.338;2022-09-09T10:55:44;94751.97;;;23.89;50.17
47636;BME280;33364;50.766;15.338;2022-09-09T10:58:19;94739.66;;;24.15;50.43
47636;BME280;33364;50.766;15.338;2022-09-09T11:00:50;94746.34;;;24.17;48.44
47636;BME280;33364;50.766;15.338;2022-09-09T11:03:28;94738.84;;;24.14;48.73
47636;BME280;33364;50.766;15.338;2022-09-09T11:06:05;94734.72;;;24.25;47.06
47636;BME280;33364;50.766;15.338;2022-09-09T11:08:35;94733.66;;;24.33;48.11
47636;BME280;33364;50.766;15.338;2022-09-09T11:19:30;94738.38;;;24.62;49.10
47636;BME280;33364;50.766;15.338;2022-09-09T11:22:02;94745.56;;;24.55;45.55
47636;BME280;33364;50.766;15.338;2022-09-09T11:24:37;94738.03;;;24.52;45.08
47636;BME280;33364;50.766;15.338;2022-09-09T11:30:04;94736.59;;;24.18;46.22
47636;BME280;33364;50.766;15.338;2022-09-09T11:36:02;94733.88;;;23.93;46.04
47636;BME280;33364;50.766;15.338;2022-09-09T11:38:50;94734.66;;;23.42;47.47
47636;BME280;33364;50.766;15.338;2022-09-09T11:41:17;94736.06;;;23.38;47.38
47636;BME280;33364;50.766;15.338;2022-09-09T11:43:48;94727.75;;;23.41;47.93
47636;BME280;33364;50.766;15.338;2022-09-09T11:46:19;94726.69;;;23.48;47.91
47636;BME280;33364;50.766;15.338;2022-09-09T11:48:58;94723.06;;;23.94;45.96
47636;BME280;33364;50.766;15.338;2022-09-09T11:53:55;94721.81;;;24.42;43.61
47636;BME280;33364;50.766;15.338;2022-09-09T11:56:28;94736.34;;;24.58;46.92
47636;BME280;33364;50.766;15.338;2022-09-09T11:59:01;94728.38;;;24.64;45.49
47636;BME280;33364;50.766;15.338;2022-09-09T12:01:29;94738.72;;;24.41;44.91
47636;BME280;33364;50.766;15.338;2022-09-09T12:06:50;94734.28;;;24.28;45.60
47636;BME280;33364;50.766;15.338;2022-09-09T12:12:30;94722.31;;;23.87;46.37
47636;BME280;33364;50.766;15.338;2022-09-09T12:14:59;94721.59;;;23.53;46.06
47636;BME280;33364;50.766;15.338;2022-09-09T12:17:28;94717.03;;;23.22;46.33
47636;BME280;33364;50.766;15.338;2022-09-09T12:20:10;94718.59;;;23.37;47.74
47636;BME280;33364;50.766;15.338;2022-09-09T12:22:46;94703.75;;;23.94;47.40
47636;BME280;33364;50.766;15.338;2022-09-09T12:28:11;94706.22;;;23.89;45.04
47636;BME280;33364;50.766;15.338;2022-09-09T12:33:44;94720.34;;;23.63;45.48
47636;BME280;33364;50.766;15.338;2022-09-09T12:36:15;94703.06;;;23.73;45.24
47636;BME280;33364;50.766;15.338;2022-09-09T12:38:43;94703.44;;;23.77;45.86
47636;BME280;33364;50.766;15.338;2022-09-09T12:41:23;94697.31;;;24.21;46.24
47636;BME280;33364;50.766;15.338;2022-09-09T12:43:50;94689.28;;;24.35;45.24
47636;BME280;33364;50.766;15.338;2022-09-09T12:46:32;94687.28;;;24.37;45.11
47636;BME280;33364;50.766;15.338;2022-09-09T12:48:58;94690.31;;;24.02;45.33
47636;BME280;33364;50.766;15.338;2022-09-09T12:51:28;94699.44;;;23.61;46.13
47636;BME280;33364;50.766;15.338;2022-09-09T12:53:54;94697.25;;;23.38;47.37
47636;BME280;33364;50.766;15.338;2022-09-09T12:56:26;94694.66;;;23.32;47.46
47636;BME280;33364;50.766;15.338;2022-09-09T12:58:53;94688.41;;;23.19;48.22
47636;BME280;33364;50.766;15.338;2022-09-09T13:01:23;94682.16;;;23.00;48.84
47636;BME280;33364;50.766;15.338;2022-09-09T13:03:49;94687.22;;;23.02;49.68
47636;BME280;33364;50.766;15.338;2022-09-09T13:06:21;94689.25;;;22.87;49.87
47636;BME280;33364;50.766;15.338;2022-09-09T13:08:49;94690.91;;;22.74;49.79
47636;BME280;33364;50.766;15.338;2022-09-09T13:11:28;94686.22;;;22.57;49.68
47636;BME280;33364;50.766;15.338;2022-09-09T13:13:56;94684.81;;;22.41;50.86
47636;BME280;33364;50.766;15.338;2022-09-09T13:16:26;94693.09;;;22.31;51.14
47636;BME280;33364;50.766;15.338;2022-09-09T13:19:16;94684.94;;;22.06;50.32
47636;BME280;33364;50.766;15.338;2022-09-09T13:21:42;94696.28;;;22.00;49.81
47636;BME280;33364;50.766;15.338;2022-09-09T13:24:33;94703.66;;;21.63;52.13
47636;BME280;33364;50.766;15.338;2022-09-09T13:27:28;94698.28;;;21.37;53.12
47636;BME280;33364;50.766;15.338;2022-09-09T13:29:54;94695.06;;;21.35;53.83
47636;BME280;33364;50.766;15.338;2022-09-09T13:32:23;94692.09;;;21.23;55.19
47636;BME280;33364;50.766;15.338;2022-09-09T13:34:57;94694.84;;;21.08;56.57
47636;BME280;33364;50.766;15.338;2022-09-09T13:37:31;94697.81;;;20.92;56.75
47636;BME280;33364;50.766;15.338;2022-09-09T13:39:57;94697.50;;;20.74;59.01
47636;BME280;33364;50.766;15.338;2022-09-09T13:42:28;94703.97;;;20.78;59.01
47636;BME280;33364;50.766;15.338;2022-09-09T13:44:56;94687.16;;;20.72;59.02
47636;BME280;33364;50.766;15.338;2022-09-09T13:47:34;94682.31;;;20.76;57.20
47636;BME280;33364;50.766;15.338;2022-09-09T13:50:24;94684.84;;;20.90;55.98
47636;BME280;33364;50.766;15.338;2022-09-09T13:52:52;94688.53;;;20.96;56.60
47636;BME280;33364;50.766;15.338;2022-09-09T13:55:19;94686.03;;;20.88;56.46
47636;BME280;33364;50.766;15.338;2022-09-09T13:57:51;94690.91;;;20.84;56.36
47636;BME280;33364;50.766;15.338;2022-09-09T14:00:17;94690.13;;;20.90;57.49
47636;BME280;33364;50.766;15.338;2022-09-09T14:02:43;94690.69;;;20.86;58.31
47636;BME280;33364;50.766;15.338;2022-09-09T14:05:10;94688.88;;;20.86;58.46
47636;BME280;33364;50.766;15.338;2022-09-09T14:07:38;94681.97;;;20.79;57.63
47636;BME280;33364;50.766;15.338;2022-09-09T14:10:05;94675.25;;;20.76;56.91
47636;BME280;33364;50.766;15.338;2022-09-09T14:12:31;94667.72;;;20.73;55.95
47636;BME280;33364;50.766;15.338;2022-09-09T14:14:56;94676.97;;;20.62;55.75
47636;BME280;33364;50.766;15.338;2022-09-09T14:17:22;94680.94;;;20.52;59.58
47636;BME280;33364;50.766;15.338;2022-09-09T14:19:48;94690.88;;;20.56;59.28
47636;BME280;33364;50.766;15.338;2022-09-09T14:22:14;94685.63;;;20.56;58.79
47636;BME280;33364;50.766;15.338;2022-09-09T14:24:40;94680.38;;;20.56;58.09
47636;BME280;33364;50.766;15.338;2022-09-09T14:27:06;94674.06;;;20.51;59.17
47636;BME280;33364;50.766;15.338;2022-09-09T14:29:31;94683.63;;;20.37;60.16
47636;BME280;33364;50.766;15.338;2022-09-09T14:31:58;94682.00;;;20.36;60.48
47636;BME280;33364;50.766;15.338;2022-09-09T14:34:26;94675.56;;;20.38;60.40
47636;BME280;33364;50.766;15.338;2022-09-09T14:36:51;94684.38;;;20.31;58.70
47636;BME280;33364;50.766;15.338;2022-09-09T14:39:17;94673.13;;;20.15;63.66
47636;BME280;33364;50.766;15.338;2022-09-09T14:41:43;94682.03;;;20.14;64.84
47636;BME280;33364;50.766;15.338;2022-09-09T14:44:09;94668.94;;;20.21;63.81